Nisshoumaru — JD3093 — position and weather

sailwx.info

Track history (hours):
 
Tides and Currents Weather Stations Pressure Air Temp Water Temp Dewpoint Dewpoint Depression Visibility Wind Speed Wind Dir Waves Ship Positions

Nisshoumaru

Last reported at 2014-Oct-28 14:06 UTC. Time now 2014-Nov-01 01:52 UTC.
Position N 35°14' E 139°47'.

Length 76 m; draft 4 m.

Type: Cargo ship. MMSI: 431001549.

Date/timePositionNaut miles runAvg speedWind from/ knotsBaromVisibWave heightAir tempDewpointWater temp
2014-Oct-28 14:06N 35°14' E 139°47'713.1
2014-Oct-28 13:33N 35°20' E 139°43'7 6.6
2014-Oct-28 12:33N 35°22' E 139°50'1 1.0
2014-Oct-28 11:33N 35°21' E 139°51'0 0.0
2014-Oct-28 10:33N 35°21' E 139°51'0 0.0
2014-Oct-28 09:31N 35°21' E 139°51'0 0.0
2014-Oct-28 08:32N 35°21' E 139°51'0 0.0
2014-Oct-28 07:33N 35°21' E 139°51'0 0.0
2014-Oct-28 06:33N 35°21' E 139°51'0 0.0
2014-Oct-28 05:33N 35°21' E 139°51'0 0.0
2014-Oct-28 04:30N 35°21' E 139°51'0 0.0
2014-Oct-28 03:30N 35°21' E 139°51'0 0.0
2014-Oct-28 02:32N 35°21' E 139°51'0 0.0
2014-Oct-28 01:33N 35°21' E 139°51'0 0.0
2014-Oct-28 00:32N 35°21' E 139°51'0 0.0
2014-Oct-27 23:33N 35°21' E 139°51'0 0.0
2014-Oct-27 22:33N 35°21' E 139°51'0 0.0
2014-Oct-27 21:33N 35°21' E 139°51'0 0.0
2014-Oct-27 20:33N 35°21' E 139°51'0 0.0
2014-Oct-27 19:33N 35°21' E 139°51'0 0.0
2014-Oct-27 18:34N 35°21' E 139°51'0 0.0
2014-Oct-27 17:33N 35°21' E 139°51'0 0.0
2014-Oct-27 16:34N 35°21' E 139°51'0 0.0
2014-Oct-27 15:33N 35°21' E 139°51'0 0.0
2014-Oct-27 14:33N 35°21' E 139°51'0 0.0
2014-Oct-27 13:34N 35°21' E 139°51'0 0.0
2014-Oct-27 12:33N 35°21' E 139°51'0 0.0
2014-Oct-27 11:34N 35°21' E 139°51'0 0.0
2014-Oct-27 10:33N 35°21' E 139°51'0 0.0
2014-Oct-27 09:33N 35°21' E 139°51'0 0.1
2014-Oct-27 08:33N 35°21' E 139°51'0 0.1
2014-Oct-27 07:33N 35°21' E 139°51'0 0.0
2014-Oct-27 06:33N 35°21' E 139°51'0 0.0
2014-Oct-27 05:33N 35°21' E 139°51'0 0.0
2014-Oct-27 04:33N 35°21' E 139°51'0 0.0
2014-Oct-27 03:33N 35°21' E 139°51'0 0.0
2014-Oct-27 02:33N 35°21' E 139°51'0 0.0
2014-Oct-27 01:33N 35°21' E 139°51'0 0.0
2014-Oct-27 00:33N 35°21' E 139°51'0 0.0
2014-Oct-26 23:33N 35°21' E 139°51'0 0.0
2014-Oct-26 22:33N 35°21' E 139°51'0 0.0
2014-Oct-26 21:33N 35°21' E 139°51'0 0.0
2014-Oct-26 20:33N 35°21' E 139°51'0 0.0
2014-Oct-26 19:33N 35°21' E 139°51'0 0.0
2014-Oct-26 18:33N 35°21' E 139°51'0 0.0
2014-Oct-26 17:33N 35°21' E 139°51'0 0.0
2014-Oct-26 16:33N 35°21' E 139°51'0 0.0
2014-Oct-26 15:33N 35°21' E 139°51'0 0.0
2014-Oct-26 14:33N 35°21' E 139°51'0 0.0
2014-Oct-26 13:33N 35°21' E 139°51'0 0.0
2014-Oct-26 12:33N 35°21' E 139°51'0 0.0
2014-Oct-26 11:33N 35°21' E 139°51'0 0.0
2014-Oct-26 10:29N 35°21' E 139°51'0 0.0
2014-Oct-26 09:33N 35°21' E 139°51'0 0.1
2014-Oct-26 08:33N 35°21' E 139°51'0 0.1
2014-Oct-26 07:33N 35°21' E 139°51'0 0.0
2014-Oct-26 06:33N 35°21' E 139°51'0 0.0
2014-Oct-26 05:32N 35°21' E 139°51'0 0.0
2014-Oct-26 04:33N 35°21' E 139°51'0 0.0
2014-Oct-26 03:33N 35°21' E 139°51'0 0.0
2014-Oct-26 02:33N 35°21' E 139°51'0 0.0
2014-Oct-26 01:33N 35°21' E 139°51'0 0.0
2014-Oct-26 00:33N 35°21' E 139°51'0 0.0
2014-Oct-25 23:33N 35°21' E 139°51'0 0.0
2014-Oct-25 22:33N 35°21' E 139°51'2 1.8
2014-Oct-25 21:33N 35°22' E 139°49'0 0.0
2014-Oct-25 20:33N 35°22' E 139°49'0 0.0
2014-Oct-25 19:33N 35°22' E 139°49'0 0.1
2014-Oct-25 18:33N 35°22' E 139°49'5 4.7
2014-Oct-25 17:33N 35°20' E 139°44'  
Track history (hours):
 
Tides and Currents Weather Stations Pressure Air Temp Water Temp Dewpoint Dewpoint Depression Visibility Wind Speed Wind Dir Waves Ship Positions

Nisshoumaru

Last reported at 2014-Oct-28 14:06 UTC. Time now 2014-Nov-01 01:52 UTC.
Position N 35°14' E 139°47'.

Length 76 m; draft 4 m.

Type: Cargo ship. MMSI: 431001549.

Date/timePositionNaut miles runAvg speedWind from/ knotsBaromVisibWave heightAir tempDewpointWater temp
2014-Oct-28 14:06N 35°14' E 139°47'713.1
2014-Oct-28 13:33N 35°20' E 139°43'7 6.6
2014-Oct-28 12:33N 35°22' E 139°50'1 1.0
2014-Oct-28 11:33N 35°21' E 139°51'0 0.0
2014-Oct-28 10:33N 35°21' E 139°51'0 0.0
2014-Oct-28 09:31N 35°21' E 139°51'0 0.0
2014-Oct-28 08:32N 35°21' E 139°51'0 0.0
2014-Oct-28 07:33N 35°21' E 139°51'0 0.0
2014-Oct-28 06:33N 35°21' E 139°51'0 0.0
2014-Oct-28 05:33N 35°21' E 139°51'0 0.0
2014-Oct-28 04:30N 35°21' E 139°51'0 0.0
2014-Oct-28 03:30N 35°21' E 139°51'0 0.0
2014-Oct-28 02:32N 35°21' E 139°51'0 0.0
2014-Oct-28 01:33N 35°21' E 139°51'0 0.0
2014-Oct-28 00:32N 35°21' E 139°51'0 0.0
2014-Oct-27 23:33N 35°21' E 139°51'0 0.0
2014-Oct-27 22:33N 35°21' E 139°51'0 0.0
2014-Oct-27 21:33N 35°21' E 139°51'0 0.0
2014-Oct-27 20:33N 35°21' E 139°51'0 0.0
2014-Oct-27 19:33N 35°21' E 139°51'0 0.0
2014-Oct-27 18:34N 35°21' E 139°51'0 0.0
2014-Oct-27 17:33N 35°21' E 139°51'0 0.0
2014-Oct-27 16:34N 35°21' E 139°51'0 0.0
2014-Oct-27 15:33N 35°21' E 139°51'0 0.0
2014-Oct-27 14:33N 35°21' E 139°51'0 0.0
2014-Oct-27 13:34N 35°21' E 139°51'0 0.0
2014-Oct-27 12:33N 35°21' E 139°51'0 0.0
2014-Oct-27 11:34N 35°21' E 139°51'0 0.0
2014-Oct-27 10:33N 35°21' E 139°51'0 0.0
2014-Oct-27 09:33N 35°21' E 139°51'0 0.1
2014-Oct-27 08:33N 35°21' E 139°51'0 0.1
2014-Oct-27 07:33N 35°21' E 139°51'0 0.0
2014-Oct-27 06:33N 35°21' E 139°51'0 0.0
2014-Oct-27 05:33N 35°21' E 139°51'0 0.0
2014-Oct-27 04:33N 35°21' E 139°51'0 0.0
2014-Oct-27 03:33N 35°21' E 139°51'0 0.0
2014-Oct-27 02:33N 35°21' E 139°51'0 0.0
2014-Oct-27 01:33N 35°21' E 139°51'0 0.0
2014-Oct-27 00:33N 35°21' E 139°51'0 0.0
2014-Oct-26 23:33N 35°21' E 139°51'0 0.0
2014-Oct-26 22:33N 35°21' E 139°51'0 0.0
2014-Oct-26 21:33N 35°21' E 139°51'0 0.0
2014-Oct-26 20:33N 35°21' E 139°51'0 0.0
2014-Oct-26 19:33N 35°21' E 139°51'0 0.0
2014-Oct-26 18:33N 35°21' E 139°51'0 0.0
2014-Oct-26 17:33N 35°21' E 139°51'0 0.0
2014-Oct-26 16:33N 35°21' E 139°51'0 0.0
2014-Oct-26 15:33N 35°21' E 139°51'0 0.0
2014-Oct-26 14:33N 35°21' E 139°51'0 0.0
2014-Oct-26 13:33N 35°21' E 139°51'0 0.0
2014-Oct-26 12:33N 35°21' E 139°51'0 0.0
2014-Oct-26 11:33N 35°21' E 139°51'0 0.0
2014-Oct-26 10:29N 35°21' E 139°51'0 0.0
2014-Oct-26 09:33N 35°21' E 139°51'0 0.1
2014-Oct-26 08:33N 35°21' E 139°51'0 0.1
2014-Oct-26 07:33N 35°21' E 139°51'0 0.0
2014-Oct-26 06:33N 35°21' E 139°51'0 0.0
2014-Oct-26 05:32N 35°21' E 139°51'0 0.0
2014-Oct-26 04:33N 35°21' E 139°51'0 0.0
2014-Oct-26 03:33N 35°21' E 139°51'0 0.0
2014-Oct-26 02:33N 35°21' E 139°51'0 0.0
2014-Oct-26 01:33N 35°21' E 139°51'0 0.0
2014-Oct-26 00:33N 35°21' E 139°51'0 0.0
2014-Oct-25 23:33N 35°21' E 139°51'0 0.0
2014-Oct-25 22:33N 35°21' E 139°51'2 1.8
2014-Oct-25 21:33N 35°22' E 139°49'0 0.0
2014-Oct-25 20:33N 35°22' E 139°49'0 0.0
2014-Oct-25 19:33N 35°22' E 139°49'0 0.1
2014-Oct-25 18:33N 35°22' E 139°49'5 4.7
2014-Oct-25 17:33N 35°20' E 139°44'  

Dump ship's entire track history